createdAt,value
2017-12-02T00:00:42.439Z,3.65
2017-12-02T00:03:10.039Z,3.60
2017-12-02T00:05:37.707Z,3.51
2017-12-02T00:08:05.306Z,3.46
2017-12-02T00:10:32.953Z,3.37
2017-12-02T00:13:00.575Z,3.27
2017-12-02T00:15:28.282Z,3.02
2017-12-02T00:17:55.993Z,2.98
2017-12-02T00:20:23.659Z,3.06
2017-12-02T00:22:51.355Z,2.92
2017-12-02T00:25:19.022Z,2.88
2017-12-02T00:27:46.745Z,2.93
2017-12-02T00:30:14.418Z,3.00
2017-12-02T00:32:42.096Z,3.10
2017-12-02T00:35:09.715Z,3.20
2017-12-02T00:37:37.398Z,3.29
2017-12-02T00:40:05.162Z,3.32
2017-12-02T00:42:32.830Z,3.28
2017-12-02T00:45:00.487Z,3.18
2017-12-02T00:47:28.181Z,3.06
2017-12-02T00:49:55.826Z,3.04
2017-12-02T00:52:23.418Z,3.13
2017-12-02T00:54:51.170Z,3.20
2017-12-02T00:57:18.987Z,3.28
2017-12-02T00:59:46.582Z,3.29
2017-12-02T01:02:14.311Z,3.32
2017-12-02T01:04:41.994Z,3.19
2017-12-02T01:07:09.709Z,3.16
2017-12-02T01:09:37.402Z,3.19
2017-12-02T01:12:05.102Z,3.20
2017-12-02T01:14:32.775Z,3.00
2017-12-02T01:17:00.491Z,2.98
2017-12-02T01:19:28.095Z,3.03
2017-12-02T01:21:55.777Z,3.11
2017-12-02T01:24:23.454Z,3.19
2017-12-02T01:26:51.118Z,3.14
2017-12-02T01:29:18.779Z,3.01
2017-12-02T01:31:46.479Z,2.99
2017-12-02T01:34:14.161Z,3.06
2017-12-02T01:36:41.777Z,3.10
2017-12-02T01:39:09.470Z,3.14
2017-12-02T01:41:37.198Z,3.14
2017-12-02T01:44:04.815Z,3.13
2017-12-02T01:46:32.522Z,3.10
2017-12-02T01:49:00.213Z,3.12
2017-12-02T01:51:27.902Z,3.13
2017-12-02T01:53:55.562Z,3.15
2017-12-02T01:56:23.285Z,3.17
2017-12-02T01:58:50.958Z,3.23
2017-12-02T02:01:18.638Z,3.25
2017-12-02T02:03:46.242Z,3.30
2017-12-02T02:06:13.943Z,3.11
2017-12-02T02:08:41.537Z,2.92
2017-12-02T02:11:09.242Z,2.75
2017-12-02T02:13:36.922Z,2.63
2017-12-02T02:16:04.638Z,2.71
2017-12-02T02:18:32.387Z,2.79
2017-12-02T02:21:00.094Z,2.86
2017-12-02T02:23:27.792Z,2.73
2017-12-02T02:25:55.471Z,2.64
2017-12-02T02:28:23.156Z,2.63
2017-12-02T02:30:50.882Z,2.70
2017-12-02T02:33:18.591Z,2.80
2017-12-02T02:35:46.254Z,2.89
2017-12-02T02:38:13.974Z,2.99
2017-12-02T02:40:41.571Z,3.05
2017-12-02T02:43:09.342Z,3.10
2017-12-02T02:45:37.010Z,3.12
2017-12-02T02:48:04.726Z,3.08
2017-12-02T02:50:32.322Z,3.10
2017-12-02T02:53:00.051Z,3.02
2017-12-02T02:55:27.669Z,2.92
2017-12-02T02:57:55.347Z,2.98
2017-12-02T03:00:23.015Z,3.01
2017-12-02T03:02:50.759Z,3.04
2017-12-02T03:05:18.430Z,3.06
2017-12-02T03:07:46.053Z,3.07
2017-12-02T03:10:13.700Z,2.92
2017-12-02T03:12:41.322Z,2.80
2017-12-02T03:15:08.926Z,2.67
2017-12-02T03:17:36.556Z,2.53
2017-12-02T03:20:04.210Z,2.37
2017-12-02T03:22:31.922Z,2.34
2017-12-02T03:24:59.593Z,2.28
2017-12-02T03:27:27.294Z,2.27
2017-12-02T03:29:54.966Z,2.28
2017-12-02T03:32:22.658Z,2.43
2017-12-02T03:34:50.330Z,2.56
2017-12-02T03:37:18.038Z,2.64
2017-12-02T03:39:45.702Z,2.73
2017-12-02T03:42:13.424Z,2.71
2017-12-02T03:44:41.103Z,2.69
2017-12-02T03:47:08.782Z,2.74
2017-12-02T03:49:36.444Z,2.82
2017-12-02T03:52:04.124Z,2.91
2017-12-02T03:54:31.786Z,3.00
2017-12-02T03:56:59.498Z,3.06
2017-12-02T03:59:27.231Z,3.09
2017-12-02T04:01:54.932Z,3.08
2017-12-02T04:04:22.522Z,3.07
2017-12-02T04:06:50.247Z,3.07
2017-12-02T04:09:17.841Z,3.11
2017-12-02T04:11:45.532Z,3.15
2017-12-02T04:14:13.118Z,3.19
2017-12-02T04:16:40.838Z,3.22
2017-12-02T04:19:08.548Z,3.26
2017-12-02T04:21:36.262Z,3.21
2017-12-02T04:24:03.889Z,3.02
2017-12-02T04:26:31.510Z,3.07
2017-12-02T04:28:59.162Z,3.09
2017-12-02T04:31:26.794Z,3.15
2017-12-02T04:33:54.450Z,3.16
2017-12-02T04:36:22.151Z,3.14
2017-12-02T04:38:49.757Z,3.14
2017-12-02T04:41:17.339Z,3.14
2017-12-02T04:43:45.034Z,3.09
2017-12-02T04:46:12.699Z,3.13
2017-12-02T04:48:40.496Z,3.16
2017-12-02T04:51:08.074Z,3.12
2017-12-02T04:53:35.707Z,3.10
2017-12-02T04:56:03.361Z,3.07
2017-12-02T04:58:31.077Z,3.06
2017-12-02T05:00:58.739Z,3.02
2017-12-02T05:03:26.434Z,2.99
2017-12-02T05:05:54.111Z,3.03
2017-12-02T05:08:21.778Z,3.06
2017-12-02T05:10:49.495Z,3.01
2017-12-02T05:13:17.190Z,2.98
2017-12-02T05:15:44.845Z,2.97
2017-12-02T05:18:12.546Z,2.99
2017-12-02T05:20:40.138Z,3.01
2017-12-02T05:23:07.744Z,2.97
2017-12-02T05:25:35.402Z,2.87
2017-12-02T05:28:03.103Z,2.90
2017-12-02T05:30:30.761Z,2.90
2017-12-02T05:32:58.462Z,2.94
2017-12-02T05:35:26.110Z,2.98
2017-12-02T05:37:53.830Z,2.93
2017-12-02T05:40:21.461Z,2.92
2017-12-02T05:42:49.107Z,2.79
2017-12-02T05:45:16.794Z,2.77
2017-12-02T05:47:44.530Z,2.73
2017-12-02T05:50:12.265Z,2.74
2017-12-02T05:52:39.916Z,2.73
2017-12-02T05:55:07.678Z,2.77
2017-12-02T05:57:35.391Z,2.81
2017-12-02T06:00:03.118Z,2.77
2017-12-02T06:02:30.811Z,2.62
2017-12-02T06:04:58.628Z,2.55
2017-12-02T06:07:26.357Z,2.51
2017-12-02T06:09:54.116Z,2.44
2017-12-02T06:12:21.831Z,2.43
2017-12-02T06:14:49.570Z,2.50
2017-12-02T06:17:17.242Z,2.56
2017-12-02T06:19:44.955Z,2.48
2017-12-02T06:22:12.616Z,2.48
2017-12-02T06:24:40.359Z,2.45
2017-12-02T06:27:08.058Z,2.45
2017-12-02T06:29:35.773Z,2.44
2017-12-02T06:32:03.426Z,2.46
2017-12-02T06:34:31.151Z,2.45
2017-12-02T06:36:58.906Z,2.33
2017-12-02T06:39:26.598Z,2.31
2017-12-02T06:41:54.258Z,2.25
2017-12-02T06:44:21.947Z,2.18
2017-12-02T06:46:49.626Z,2.16
2017-12-02T06:49:17.318Z,2.22
2017-12-02T06:51:44.983Z,2.22
2017-12-02T06:54:12.746Z,2.17
2017-12-02T06:56:40.410Z,2.09
2017-12-02T06:59:08.171Z,2.07
2017-12-02T07:01:35.892Z,2.01
2017-12-02T07:04:03.653Z,1.98
2017-12-02T07:06:31.346Z,1.86
2017-12-02T07:08:59.154Z,1.83
2017-12-02T07:11:26.850Z,1.88
2017-12-02T07:13:54.562Z,1.90
2017-12-02T07:16:22.231Z,1.94
2017-12-02T07:18:49.970Z,1.90
2017-12-02T07:21:17.615Z,1.97
2017-12-02T07:23:45.318Z,1.91
2017-12-02T07:26:12.976Z,2.10
2017-12-02T07:28:40.675Z,2.28
2017-12-02T07:31:08.340Z,2.26
2017-12-02T07:33:36.047Z,2.25
2017-12-02T07:36:03.785Z,2.24
2017-12-02T07:38:31.482Z,2.09
2017-12-02T07:40:59.138Z,2.01
2017-12-02T07:43:26.838Z,2.05
2017-12-02T07:45:54.500Z,2.09
2017-12-02T07:48:22.278Z,2.13
2017-12-02T07:50:49.950Z,2.20
2017-12-02T07:53:17.651Z,2.15
2017-12-02T07:55:45.334Z,2.23
2017-12-02T07:58:13.042Z,2.21
2017-12-02T08:00:40.790Z,2.28
2017-12-02T08:03:08.511Z,2.25
2017-12-02T08:05:36.219Z,2.27
2017-12-02T08:08:03.910Z,2.34
2017-12-02T08:10:31.839Z,2.41
2017-12-02T08:12:59.531Z,2.40
2017-12-02T08:15:27.282Z,2.30
2017-12-02T08:17:54.986Z,2.27
2017-12-02T08:20:22.658Z,2.18
2017-12-02T08:22:50.387Z,2.19
2017-12-02T08:25:18.043Z,2.20
2017-12-02T08:27:45.742Z,2.18
2017-12-02T08:30:13.494Z,2.18
2017-12-02T08:32:41.182Z,2.17
2017-12-02T08:35:08.855Z,2.25
2017-12-02T08:37:36.614Z,2.28
2017-12-02T08:40:04.287Z,2.30
2017-12-02T08:42:31.997Z,2.31
2017-12-02T08:44:59.666Z,2.35
2017-12-02T08:47:27.343Z,2.34
2017-12-02T08:49:55.085Z,2.32
2017-12-02T08:52:22.810Z,2.35
2017-12-02T08:54:50.509Z,2.32
2017-12-02T08:57:18.179Z,2.32
2017-12-02T08:59:45.987Z,2.27
2017-12-02T09:02:13.647Z,2.32
2017-12-02T09:04:41.397Z,2.40
2017-12-02T09:07:09.073Z,2.40
2017-12-02T09:09:36.791Z,2.44
2017-12-02T09:12:04.479Z,2.44
2017-12-02T09:14:32.166Z,2.34
2017-12-02T09:16:59.932Z,2.23
2017-12-02T09:19:27.603Z,2.19
2017-12-02T09:21:55.332Z,2.20
2017-12-02T09:24:23.007Z,2.05
2017-12-02T09:26:50.702Z,2.05
2017-12-02T09:29:18.366Z,2.10
2017-12-02T09:31:46.070Z,2.18
2017-12-02T09:34:13.751Z,2.16
2017-12-02T09:36:41.467Z,2.27
2017-12-02T09:39:09.127Z,2.34
2017-12-02T09:41:36.882Z,2.35
2017-12-02T09:44:04.538Z,2.35
2017-12-02T09:46:32.243Z,2.40
2017-12-02T09:48:59.910Z,2.44
2017-12-02T09:51:27.645Z,2.38
2017-12-02T09:53:55.334Z,2.33
2017-12-02T09:56:23.053Z,2.32
2017-12-02T09:58:50.730Z,2.32
2017-12-02T10:01:18.478Z,2.36
2017-12-02T10:03:46.140Z,2.39
2017-12-02T10:06:13.877Z,2.26
2017-12-02T10:08:41.579Z,2.21
2017-12-02T10:11:09.283Z,2.15
2017-12-02T10:13:36.956Z,2.11
2017-12-02T10:16:04.661Z,2.16
2017-12-02T10:18:32.325Z,2.31
2017-12-02T10:21:00.046Z,2.33
2017-12-02T10:23:27.809Z,2.31
2017-12-02T10:25:55.505Z,2.37
2017-12-02T10:28:23.178Z,2.41
2017-12-02T10:30:50.883Z,2.45
2017-12-02T10:33:18.543Z,2.45
2017-12-02T10:35:46.239Z,2.48
2017-12-02T10:38:14.002Z,2.41
2017-12-02T10:40:41.683Z,2.48
2017-12-02T10:43:09.402Z,2.53
2017-12-02T10:45:37.077Z,2.46
2017-12-02T10:48:04.791Z,2.44
2017-12-02T10:50:32.467Z,2.39
2017-12-02T10:53:00.174Z,2.37
2017-12-02T10:55:27.840Z,2.39
2017-12-02T10:57:55.545Z,2.45
2017-12-02T11:00:23.226Z,2.48
2017-12-02T11:02:50.983Z,2.54
2017-12-02T11:05:18.679Z,2.58
2017-12-02T11:07:46.382Z,2.55
2017-12-02T11:10:14.078Z,2.49
2017-12-02T11:12:41.837Z,2.58
2017-12-02T11:15:09.509Z,2.66
2017-12-02T11:17:37.222Z,2.65
2017-12-02T11:20:04.907Z,2.63
2017-12-02T11:22:32.627Z,2.61
2017-12-02T11:25:01.179Z,2.60
2017-12-02T11:27:28.901Z,2.62
2017-12-02T11:29:56.570Z,2.57
2017-12-02T11:32:24.284Z,2.52
2017-12-02T11:34:51.967Z,2.58
2017-12-02T11:37:19.632Z,2.63
2017-12-02T11:39:47.307Z,2.67
2017-12-02T11:42:14.993Z,2.74
2017-12-02T11:44:42.708Z,2.85
2017-12-02T11:47:10.386Z,2.91
2017-12-02T11:49:38.110Z,2.97
2017-12-02T11:52:05.774Z,3.04
2017-12-02T11:54:33.510Z,3.00
2017-12-02T11:57:01.186Z,3.04
2017-12-02T11:59:28.926Z,2.94
2017-12-02T12:01:56.577Z,2.98
2017-12-02T12:04:24.282Z,2.89
2017-12-02T12:06:51.998Z,2.88
2017-12-02T12:09:19.699Z,2.92
2017-12-02T12:11:47.375Z,2.98
2017-12-02T12:14:15.090Z,2.98
2017-12-02T12:16:42.783Z,2.97
2017-12-02T12:19:10.496Z,3.01
2017-12-02T12:21:38.175Z,3.01
2017-12-02T12:24:05.902Z,3.00
2017-12-02T12:26:33.598Z,2.96
2017-12-02T12:29:01.310Z,2.99
2017-12-02T12:31:29.008Z,2.85
2017-12-02T12:33:56.744Z,2.75
2017-12-02T12:36:24.422Z,2.73
2017-12-02T12:38:52.135Z,2.72
2017-12-02T12:41:19.846Z,2.71
2017-12-02T12:43:47.567Z,2.64
2017-12-02T12:46:15.295Z,2.59
2017-12-02T12:48:42.991Z,2.60
2017-12-02T12:51:10.710Z,2.69
2017-12-02T12:53:38.389Z,2.82
2017-12-02T12:56:06.095Z,2.90
2017-12-02T12:58:33.769Z,3.05
2017-12-02T13:01:01.406Z,3.09
2017-12-02T13:03:29.103Z,3.15
2017-12-02T13:05:56.808Z,3.13
2017-12-02T13:08:24.477Z,3.10
2017-12-02T13:10:52.180Z,3.09
2017-12-02T13:13:19.866Z,3.00
2017-12-02T13:15:47.565Z,2.78
2017-12-02T13:18:15.274Z,2.74
2017-12-02T13:20:43.018Z,2.80
2017-12-02T13:23:10.683Z,2.78
2017-12-02T13:25:38.417Z,2.76
2017-12-02T13:28:06.108Z,2.89
2017-12-02T13:30:33.823Z,2.96
2017-12-02T13:33:01.505Z,2.96
2017-12-02T13:35:29.206Z,2.93
2017-12-02T13:37:56.882Z,3.00
2017-12-02T13:40:24.520Z,3.04
2017-12-02T13:42:52.190Z,3.08
2017-12-02T13:45:19.897Z,3.12
2017-12-02T13:47:47.578Z,3.12
2017-12-02T13:50:15.290Z,3.08
2017-12-02T13:52:42.996Z,3.02
2017-12-02T13:55:10.690Z,3.04
2017-12-02T13:57:38.396Z,3.07
2017-12-02T14:00:06.098Z,3.04
2017-12-02T14:02:33.872Z,2.98
2017-12-02T14:05:01.575Z,2.99
2017-12-02T14:07:29.262Z,2.96
2017-12-02T14:09:57.007Z,2.97
2017-12-02T14:12:24.683Z,2.91
2017-12-02T14:14:52.382Z,2.96
2017-12-02T14:17:20.068Z,2.98
2017-12-02T14:19:47.782Z,3.02
2017-12-02T14:22:15.466Z,2.99
2017-12-02T14:24:43.184Z,3.06
2017-12-02T14:27:10.859Z,3.11
2017-12-02T14:29:38.595Z,3.17
2017-12-02T14:32:07.731Z,3.18
2017-12-02T14:34:35.540Z,3.16
2017-12-02T14:37:03.222Z,3.21
2017-12-02T14:39:30.936Z,3.22
2017-12-02T14:41:58.632Z,3.17
2017-12-02T14:44:26.436Z,3.20
2017-12-02T14:46:54.145Z,3.20
2017-12-02T14:49:21.783Z,2.90
2017-12-02T14:51:49.382Z,2.85
2017-12-02T14:54:17.090Z,2.88
2017-12-02T14:56:44.868Z,2.96
2017-12-02T14:59:12.570Z,2.97
2017-12-02T15:01:40.186Z,3.00
2017-12-02T15:04:07.904Z,3.04
2017-12-02T15:06:35.658Z,3.05
2017-12-02T15:09:03.373Z,3.00
2017-12-02T15:11:31.058Z,2.99
2017-12-02T15:13:58.673Z,2.99
2017-12-02T15:16:26.353Z,2.98
2017-12-02T15:18:54.079Z,2.96
2017-12-02T15:21:21.706Z,2.92
2017-12-02T15:23:49.491Z,2.93
2017-12-02T15:26:17.186Z,2.98
2017-12-02T15:28:45.010Z,2.92
2017-12-02T15:31:12.692Z,2.94
2017-12-02T15:33:40.439Z,2.96
2017-12-02T15:36:08.136Z,2.99
2017-12-02T15:38:35.883Z,3.06
2017-12-02T15:41:03.566Z,3.08
2017-12-02T15:43:31.283Z,3.05
2017-12-02T15:45:58.950Z,3.01
2017-12-02T15:48:26.666Z,3.02
2017-12-02T15:50:54.493Z,3.05
2017-12-02T15:53:22.171Z,2.90
2017-12-02T15:55:49.815Z,2.92
2017-12-02T15:58:17.505Z,3.00
2017-12-02T16:00:45.331Z,2.99
2017-12-02T16:03:13.043Z,2.96
2017-12-02T16:05:40.825Z,2.92
2017-12-02T16:08:08.547Z,2.89
2017-12-02T16:10:36.279Z,2.93
2017-12-02T16:13:03.959Z,2.91
2017-12-02T16:15:31.737Z,2.90
2017-12-02T16:17:59.426Z,2.92
2017-12-02T16:20:27.176Z,2.95
2017-12-02T16:22:54.860Z,2.97
2017-12-02T16:25:22.579Z,2.95
2017-12-02T16:27:50.308Z,2.91
2017-12-02T16:30:18.075Z,2.90
2017-12-02T16:32:45.765Z,2.88
2017-12-02T16:35:13.508Z,2.80
2017-12-02T16:37:41.256Z,2.90
2017-12-02T16:40:08.998Z,2.82
2017-12-02T16:42:36.745Z,2.78
2017-12-02T16:45:04.445Z,2.84
2017-12-02T16:47:32.131Z,2.85
2017-12-02T16:49:59.901Z,2.96
2017-12-02T16:52:27.607Z,2.96
2017-12-02T16:54:55.357Z,2.97
2017-12-02T16:57:23.059Z,2.92
2017-12-02T16:59:50.759Z,2.92
2017-12-02T17:02:18.436Z,2.91
2017-12-02T17:04:46.223Z,2.94
2017-12-02T17:07:13.948Z,3.21
2017-12-02T17:09:41.680Z,3.18
2017-12-02T17:12:09.502Z,3.16
2017-12-02T17:14:37.296Z,3.11
2017-12-02T17:17:05.070Z,3.08
2017-12-02T17:19:32.820Z,3.08
2017-12-02T17:22:00.486Z,3.12
2017-12-02T17:24:28.228Z,3.14
2017-12-02T17:26:55.934Z,3.09
2017-12-02T17:29:23.638Z,3.07
2017-12-02T17:31:51.330Z,3.09
2017-12-02T17:34:19.054Z,3.06
2017-12-02T17:36:46.743Z,3.07
2017-12-02T17:39:14.455Z,3.01
2017-12-02T17:41:42.138Z,3.00
2017-12-02T17:44:09.857Z,3.01
2017-12-02T17:46:37.530Z,3.00
2017-12-02T17:49:05.331Z,2.95
2017-12-02T17:51:33.020Z,2.89
2017-12-02T17:54:00.756Z,2.81
2017-12-02T17:56:28.492Z,2.79
2017-12-02T17:58:56.236Z,2.83
2017-12-02T18:01:23.962Z,2.81
2017-12-02T18:03:51.697Z,2.85
2017-12-02T18:06:19.367Z,2.85
2017-12-02T18:08:47.063Z,2.80
2017-12-02T18:11:14.806Z,2.76
2017-12-02T18:13:42.531Z,2.75
2017-12-02T18:16:10.311Z,2.74
2017-12-02T18:18:38.065Z,2.79
2017-12-02T18:21:05.802Z,2.77
2017-12-02T18:23:33.591Z,2.80
2017-12-02T18:26:01.287Z,2.82
2017-12-02T18:28:29.083Z,2.82
2017-12-02T18:30:56.847Z,2.73
2017-12-02T18:33:24.636Z,2.73
2017-12-02T18:35:52.449Z,2.74
2017-12-02T18:38:20.219Z,2.80
2017-12-02T18:40:47.949Z,2.82
2017-12-02T18:43:15.773Z,2.81
2017-12-02T18:45:43.433Z,2.83
2017-12-02T18:48:11.150Z,2.72
2017-12-02T18:50:38.776Z,2.75
2017-12-02T18:53:06.588Z,2.73
2017-12-02T18:55:34.274Z,2.71
2017-12-02T18:58:01.990Z,2.74
2017-12-02T19:00:30.522Z,2.72
2017-12-02T19:02:58.236Z,2.79
2017-12-02T19:05:25.926Z,2.80
2017-12-02T19:07:53.657Z,2.80
2017-12-02T19:10:21.338Z,2.82
2017-12-02T19:12:49.042Z,2.84
2017-12-02T19:15:16.639Z,2.88
2017-12-02T19:17:44.356Z,2.91
2017-12-02T19:20:12.117Z,2.86
2017-12-02T19:22:39.914Z,2.80
2017-12-02T19:25:07.618Z,2.82
2017-12-02T19:27:35.335Z,2.87
2017-12-02T19:30:03.103Z,2.92
2017-12-02T19:32:30.831Z,2.89
2017-12-02T19:34:58.502Z,2.86
2017-12-02T19:37:26.209Z,2.85
2017-12-02T19:39:53.892Z,2.88
2017-12-02T19:42:21.669Z,2.85
2017-12-02T19:44:49.364Z,2.88
2017-12-02T19:47:17.147Z,2.87
2017-12-02T19:49:44.926Z,2.83
2017-12-02T19:52:12.713Z,2.81
2017-12-02T19:54:40.473Z,2.76
2017-12-02T19:57:08.191Z,2.71
2017-12-02T19:59:35.868Z,2.71
2017-12-02T20:02:03.586Z,2.68
2017-12-02T20:04:31.276Z,2.67
2017-12-02T20:06:59.141Z,2.67
2017-12-02T20:09:26.840Z,2.69
2017-12-02T20:11:54.538Z,2.72
2017-12-02T20:14:22.379Z,2.67
2017-12-02T20:16:50.130Z,2.66
2017-12-02T20:19:17.867Z,3.69
2017-12-02T20:21:45.574Z,3.38
2017-12-02T20:24:13.269Z,3.18
2017-12-02T20:26:41.064Z,2.93
2017-12-02T20:29:08.786Z,2.83
2017-12-02T20:31:36.462Z,2.82
2017-12-02T20:34:04.271Z,2.78
2017-12-02T20:36:32.049Z,2.78
2017-12-02T20:38:59.860Z,2.73
2017-12-02T20:41:27.590Z,2.71
2017-12-02T20:43:55.399Z,2.71
2017-12-02T20:46:23.076Z,2.76
2017-12-02T20:48:50.812Z,2.84
2017-12-02T20:51:18.504Z,2.90
2017-12-02T20:53:46.262Z,2.82
2017-12-02T20:56:14.092Z,2.78
2017-12-02T20:58:41.823Z,2.85
2017-12-02T21:01:09.486Z,2.89
2017-12-02T21:03:37.259Z,2.82
2017-12-02T21:06:05.011Z,2.78
2017-12-02T21:08:32.754Z,2.65
2017-12-02T21:11:00.442Z,2.52
2017-12-02T21:13:28.154Z,2.46
2017-12-02T21:15:55.920Z,2.54
2017-12-02T21:18:23.720Z,2.66
2017-12-02T21:20:51.392Z,2.76
2017-12-02T21:23:19.164Z,2.80
2017-12-02T21:25:46.853Z,2.88
2017-12-02T21:28:14.566Z,2.94
2017-12-02T21:30:42.271Z,2.97
2017-12-02T21:33:10.006Z,2.95
2017-12-02T21:35:37.774Z,2.95
2017-12-02T21:38:05.532Z,3.01
2017-12-02T21:40:33.144Z,3.01
2017-12-02T21:43:00.855Z,2.94
2017-12-02T21:45:28.613Z,2.87
2017-12-02T21:47:56.348Z,2.84
2017-12-02T21:50:24.022Z,2.74
2017-12-02T21:52:51.791Z,2.75
2017-12-02T21:55:19.474Z,2.75
2017-12-02T21:57:49.031Z,2.78
2017-12-02T22:00:16.754Z,2.79
2017-12-02T22:02:44.954Z,2.78
2017-12-02T22:05:12.629Z,2.76
2017-12-02T22:07:40.413Z,2.81
2017-12-02T22:10:08.086Z,2.83
2017-12-02T22:12:35.829Z,2.81
2017-12-02T22:15:03.522Z,2.72
2017-12-02T22:17:31.285Z,2.62
2017-12-02T22:19:59.033Z,2.61
2017-12-02T22:22:26.745Z,2.64
2017-12-02T22:24:54.462Z,2.69
2017-12-02T22:27:23.654Z,2.68
2017-12-02T22:29:51.414Z,2.73
2017-12-02T22:32:19.093Z,2.78
2017-12-02T22:34:46.794Z,2.86
2017-12-02T22:37:15.358Z,2.91
2017-12-02T22:39:43.109Z,2.87
2017-12-02T22:42:10.801Z,2.87
2017-12-02T22:44:38.535Z,2.79
2017-12-02T22:47:06.191Z,2.69
2017-12-02T22:49:33.936Z,2.61
2017-12-02T22:52:01.622Z,2.67
2017-12-02T22:54:29.314Z,2.72
2017-12-02T22:56:57.015Z,2.77
2017-12-02T22:59:24.739Z,2.76
2017-12-02T23:01:52.423Z,2.79
2017-12-02T23:04:20.547Z,2.80
2017-12-02T23:06:48.246Z,2.74
2017-12-02T23:09:15.959Z,2.67
2017-12-02T23:11:43.622Z,2.68
2017-12-02T23:14:11.334Z,2.66
2017-12-02T23:16:39.027Z,2.66
2017-12-02T23:19:06.758Z,2.60
2017-12-02T23:21:34.437Z,2.64
2017-12-02T23:24:02.192Z,2.63
2017-12-02T23:26:29.870Z,2.63
2017-12-02T23:28:57.530Z,2.64
2017-12-02T23:31:25.230Z,2.58
2017-12-02T23:33:52.972Z,2.56
2017-12-02T23:36:20.694Z,2.57
2017-12-02T23:38:48.362Z,2.57
2017-12-02T23:41:16.135Z,2.57
2017-12-02T23:43:43.823Z,2.56
2017-12-02T23:46:11.554Z,2.53
2017-12-02T23:48:39.230Z,2.52
2017-12-02T23:51:06.950Z,2.50
2017-12-02T23:53:34.650Z,2.49
2017-12-02T23:56:02.347Z,2.51
2017-12-02T23:58:30.067Z,2.54
